Time;durP1;ratioP1;P1;durP2;ratioP2;P2;SDS_P1;SDS_P2;PMS_P1;PMS_P2;Temp;Humidity;BMP_temperature;BMP_pressure;BME280_temperature;BME280_humidity;BME280_pressure;Samples;Min_cycle;Max_cycle;Signal;HPM_P1;HPM_P2
2021/11/17 02:28:30;;;;;;;33.90;23.87;;;9.10;99.90;;;;;;6325841;28;20468;-65
2021/11/17 02:31:54;;;;;;;31.07;22.80;;;9.10;99.90;;;;;;6325820;28;20538;-65
2021/11/17 02:35:40;;;;;;;29.30;23.67;;;9.20;99.90;;;;;;6316249;28;20459;-65
2021/11/17 02:38:58;;;;;;;32.13;24.40;;;9.20;99.90;;;;;;6325718;28;20488;-66
2021/11/17 02:42:23;;;;;;;37.50;27.40;;;9.20;99.90;;;;;;6325819;28;20526;-65
2021/11/17 02:45:43;;;;;;;30.73;24.60;;;9.20;99.90;;;;;;6325469;28;20972;-65
2021/11/17 02:49:03;;;;;;;33.43;25.53;;;9.20;99.90;;;;;;6325521;28;20472;-65
2021/11/17 02:52:28;;;;;;;31.67;25.90;;;9.20;99.90;;;;;;6325778;28;20472;-65
2021/11/17 02:55:48;;;;;;;33.23;25.83;;;9.20;99.90;;;;;;6325151;28;20963;-65
2021/11/17 02:59:12;;;;;;;31.00;24.50;;;9.20;99.90;;;;;;6325091;28;20444;-66
2021/11/17 03:02:49;;;;;;;31.97;24.67;;;9.20;99.90;;;;;;6325152;28;20470;-65
2021/11/17 03:06:33;;;;;;;29.40;24.70;;;9.20;99.90;;;;;;6310460;28;20476;-65
2021/11/17 03:09:56;;;;;;;30.40;22.90;;;9.20;99.90;;;;;;6327745;28;20476;-65
2021/11/17 03:13:22;;;;;;;29.47;25.10;;;9.20;99.90;;;;;;6327635;28;20468;-65
2021/11/17 03:16:39;;;;;;;32.73;24.03;;;9.20;99.90;;;;;;6326083;28;20835;-65
2021/11/17 03:19:55;;;;;;;28.90;23.27;;;9.20;99.90;;;;;;6325118;28;20605;-65
2021/11/17 03:23:11;;;;;;;34.20;25.00;;;9.20;99.90;;;;;;6324666;28;20483;-65
2021/11/17 03:26:30;;;;;;;32.70;24.53;;;9.20;99.90;;;;;;6324805;28;20464;-65
2021/11/17 03:30:06;;;;;;;32.57;25.60;;;9.20;99.90;;;;;;6324397;28;20464;-65
2021/11/17 03:33:32;;;;;;;33.90;23.80;;;9.20;99.90;;;;;;6324373;28;20809;-65
2021/11/17 03:37:06;;;;;;;30.40;25.37;;;9.20;99.90;;;;;;6324563;28;20488;-65
2021/11/17 03:40:55;;;;;;;32.73;25.90;;;9.20;99.90;;;;;;6319943;28;20476;-65
2021/11/17 03:44:19;;;;;;;32.97;25.13;;;9.20;99.90;;;;;;6289000;28;20814;-65
2021/11/17 03:47:39;;;;;;;32.60;25.70;;;9.30;99.90;;;;;;6324581;28;20589;-65
2021/11/17 03:51:04;;;;;;;32.13;23.87;;;9.30;99.90;;;;;;6324805;28;20461;-65
2021/11/17 03:54:50;;;;;;;37.20;25.20;;;9.30;99.90;;;;;;6324980;28;20781;-65
2021/11/17 03:58:05;;;;;;;33.87;25.43;;;9.30;99.90;;;;;;6295818;28;20475;-65
2021/11/17 04:01:30;;;;;;;33.33;25.57;;;9.30;99.90;;;;;;6324796;28;20483;-65
2021/11/17 04:04:47;;;;;;;33.77;24.87;;;9.20;99.90;;;;;;6324433;28;20472;-65
2021/11/17 04:08:12;;;;;;;30.47;25.07;;;9.30;99.90;;;;;;6324197;28;20549;-65
2021/11/17 04:11:37;;;;;;;31.27;25.10;;;9.30;99.90;;;;;;6324184;28;20971;-65
2021/11/17 04:14:52;;;;;;;30.13;24.77;;;9.30;99.90;;;;;;6324217;28;20465;-65
2021/11/17 04:18:05;;;;;;;37.20;25.33;;;9.30;99.90;;;;;;6324384;28;20842;-65
2021/11/17 04:21:31;;;;;;;28.67;22.97;;;9.20;99.90;;;;;;6324618;28;20483;-65
2021/11/17 04:24:53;;;;;;;31.23;24.20;;;9.20;99.90;;;;;;6324887;28;20480;-66
2021/11/17 04:28:09;;;;;;;31.40;25.50;;;9.10;99.90;;;;;;6323992;28;20484;-66
2021/11/17 04:31:48;;;;;;;30.13;24.37;;;9.20;99.90;;;;;;6323935;28;20468;-65
2021/11/17 04:35:10;;;;;;;30.00;23.70;;;9.30;99.90;;;;;;6319575;28;20467;-65
2021/11/17 04:38:30;;;;;;;32.67;25.17;;;9.30;99.90;;;;;;6324428;28;20464;-65
2021/11/17 04:42:02;;;;;;;34.53;24.93;;;9.20;99.90;;;;;;6324266;28;20472;-65
2021/11/17 04:45:18;;;;;;;35.90;25.40;;;9.20;99.90;;;;;;6321752;28;20468;-65
2021/11/17 04:48:40;;;;;;;35.80;26.80;;;9.20;99.90;;;;;;6328532;28;20792;-65
2021/11/17 04:52:09;;;;;;;37.70;27.73;;;9.20;99.90;;;;;;6328365;28;20456;-65
2021/11/17 04:55:36;;;;;;;35.63;27.83;;;9.20;99.90;;;;;;6328551;28;20467;-65
2021/11/17 04:58:56;;;;;;;37.77;26.50;;;9.20;99.90;;;;;;6328415;28;20628;-65
2021/11/17 05:02:13;;;;;;;32.33;24.83;;;9.30;99.90;;;;;;6328408;28;20457;-65
2021/11/17 05:05:56;;;;;;;27.70;23.37;;;9.20;99.90;;;;;;6328405;28;20967;-65
2021/11/17 05:09:08;;;;;;;38.50;25.60;;;9.20;99.90;;;;;;6328508;28;20479;-65
2021/11/17 05:12:28;;;;;;;33.33;24.30;;;9.20;99.90;;;;;;6328133;28;20479;-65
2021/11/17 05:15:42;;;;;;;30.70;24.70;;;9.20;99.90;;;;;;6327901;28;20483;-66
2021/11/17 05:18:53;;;;;;;37.40;28.07;;;9.20;99.90;;;;;;6327551;28;20464;-66
2021/11/17 05:22:12;;;;;;;32.80;26.37;;;9.20;99.90;;;;;;6327929;28;20488;-66
2021/11/17 05:25:33;;;;;;;31.40;24.07;;;9.10;99.90;;;;;;6327843;28;20476;-66
2021/11/17 05:28:53;;;;;;;33.70;25.20;;;9.00;99.90;;;;;;6327377;28;20477;-66
2021/11/17 05:32:14;;;;;;;27.77;24.27;;;8.90;99.90;;;;;;6327797;28;20457;-66
2021/11/17 05:35:32;;;;;;;32.97;24.63;;;9.00;99.90;;;;;;6327486;28;20472;-66
2021/11/17 05:38:48;;;;;;;33.20;25.87;;;8.90;99.90;;;;;;6327051;28;20480;-66
2021/11/17 05:42:04;;;;;;;36.63;26.63;;;8.90;99.90;;;;;;6329068;28;20472;-66
2021/11/17 05:45:30;;;;;;;32.37;26.10;;;8.90;99.90;;;;;;6329362;28;20472;-66
2021/11/17 05:48:45;;;;;;;35.00;27.30;;;8.80;99.90;;;;;;6318846;28;20940;-66
2021/11/17 05:52:28;;;;;;;33.90;25.43;;;8.90;99.90;;;;;;6328006;28;20468;-66
2021/11/17 05:55:44;;;;;;;37.37;25.87;;;9.00;99.90;;;;;;6327741;28;20479;-66
2021/11/17 05:58:59;;;;;;;31.30;25.97;;;9.00;99.90;;;;;;6327027;28;20472;-66
2021/11/17 06:02:27;;;;;;;36.10;29.10;;;9.00;99.90;;;;;;6326533;28;20473;-66
2021/11/17 06:05:30;;;;;;;34.67;27.40;;;8.90;99.90;;;;;;6327203;28;20544;-66
2021/11/17 06:08:33;;;;;;;39.30;27.13;;;8.90;99.90;;;;;;6326480;28;20835;-66
2021/11/17 06:11:40;;;;;;;39.60;30.13;;;8.90;99.90;;;;;;6326683;28;20959;-66
2021/11/17 06:14:48;;;;;;;37.00;28.20;;;8.90;99.90;;;;;;6325881;28;20487;-65
2021/11/17 06:17:55;;;;;;;35.37;27.03;;;8.90;99.90;;;;;;6326497;28;20476;-65
2021/11/17 06:20:59;;;;;;;37.53;27.43;;;9.00;99.90;;;;;;6326494;28;20472;-66
2021/11/17 06:24:06;;;;;;;36.13;27.07;;;9.00;99.90;;;;;;6326553;28;20474;-66
2021/11/17 06:27:15;;;;;;;35.40;28.03;;;9.00;99.90;;;;;;6326348;28;20477;-66
2021/11/17 06:30:21;;;;;;;38.37;29.27;;;9.00;99.90;;;;;;6326545;28;20473;-68
2021/11/17 06:33:25;;;;;;;35.97;28.70;;;9.00;99.90;;;;;;6325613;28;20762;-68
2021/11/17 06:36:28;;;;;;;38.83;27.73;;;9.00;99.90;;;;;;6325684;28;20480;-68
2021/11/17 06:39:32;;;;;;;41.73;27.60;;;8.90;99.90;;;;;;6325228;28;20864;-68
2021/11/17 06:42:41;;;;;;;34.00;26.50;;;8.90;99.90;;;;;;6325710;28;20944;-68
2021/11/17 06:45:45;;;;;;;36.60;28.10;;;8.90;99.90;;;;;;6325445;28;20819;-68
2021/11/17 06:48:48;;;;;;;37.53;27.17;;;8.90;99.90;;;;;;6326054;28;20468;-68
2021/11/17 06:51:51;;;;;;;38.67;26.97;;;8.90;99.90;;;;;;6320860;28;20464;-68
2021/11/17 06:54:55;;;;;;;36.70;27.40;;;9.00;99.90;;;;;;6325252;28;20559;-68
2021/11/17 06:58:00;;;;;;;40.43;27.87;;;9.00;99.90;;;;;;6325504;28;20540;-68
2021/11/17 07:01:03;;;;;;;39.27;27.07;;;8.90;99.90;;;;;;6325556;28;20476;-68
2021/11/17 07:04:08;;;;;;;35.90;28.27;;;9.00;99.90;;;;;;6325295;28;20559;-68
2021/11/17 07:07:14;;;;;;;35.13;25.47;;;9.00;99.90;;;;;;6324521;28;20979;-69
2021/11/17 07:10:18;;;;;;;35.23;26.50;;;9.00;99.90;;;;;;6325336;28;20479;-68
2021/11/17 07:13:23;;;;;;;29.97;24.70;;;9.10;99.90;;;;;;6325276;28;20468;-68
2021/11/17 07:16:26;;;;;;;35.70;29.27;;;9.10;99.90;;;;;;6325026;28;20468;-65
2021/11/17 07:19:29;;;;;;;64.70;30.73;;;9.00;99.90;;;;;;6325217;28;20863;-65
2021/11/17 07:22:32;;;;;;;60.27;28.93;;;9.00;99.90;;;;;;6324800;28;20537;-66
2021/11/17 07:25:36;;;;;;;38.00;27.40;;;9.00;99.90;;;;;;6324926;28;20810;-66
2021/11/17 07:28:41;;;;;;;33.53;24.87;;;9.10;99.90;;;;;;6324504;28;20991;-68
2021/11/17 07:31:44;;;;;;;35.83;27.33;;;9.10;99.90;;;;;;6325100;28;20471;-66
2021/11/17 07:34:48;;;;;;;61.20;29.50;;;9.20;99.90;;;;;;6323864;28;20842;-67
2021/11/17 07:37:52;;;;;;;44.30;27.07;;;9.20;99.90;;;;;;6323734;28;20782;-68
2021/11/17 07:40:55;;;;;;;92.47;33.73;;;9.30;99.90;;;;;;6323859;28;20428;-67
2021/11/17 07:44:00;;;;;;;63.97;30.07;;;9.40;99.90;;;;;;6324303;28;20472;-68
2021/11/17 07:47:04;;;;;;;60.77;31.57;;;9.40;99.90;;;;;;6323052;28;20475;-68
2021/11/17 07:50:08;;;;;;;64.67;31.00;;;9.40;99.90;;;;;;6322540;28;20444;-68
2021/11/17 07:53:12;;;;;;;32.60;25.07;;;9.50;99.90;;;;;;6318711;28;20460;-68
2021/11/17 07:56:16;;;;;;;35.67;26.07;;;9.60;99.90;;;;;;6322082;28;20481;-65
2021/11/17 07:59:23;;;;;;;35.83;25.70;;;9.60;99.90;;;;;;6324053;28;20523;-65
2021/11/17 08:02:27;;;;;;;33.53;26.13;;;9.70;99.90;;;;;;6324169;28;20814;-68
2021/11/17 08:05:31;;;;;;;34.20;24.90;;;9.70;99.90;;;;;;6321801;28;20476;-66
2021/11/17 08:08:35;;;;;;;40.20;27.10;;;9.60;99.90;;;;;;6321823;28;20470;-68
2021/11/17 08:11:40;;;;;;;28.63;23.30;;;9.70;99.90;;;;;;6323208;28;20939;-68
2021/11/17 08:14:45;;;;;;;41.50;27.47;;;9.70;99.90;;;;;;6324029;28;20814;-65
2021/11/17 08:17:48;;;;;;;34.90;27.00;;;9.80;99.90;;;;;;6323846;28;20472;-67
2021/11/17 08:20:51;;;;;;;34.40;26.87;;;9.80;99.90;;;;;;6327127;28;20806;-67
2021/11/17 08:23:55;;;;;;;32.90;25.97;;;9.80;99.90;;;;;;6328460;28;20788;-65
2021/11/17 08:26:58;;;;;;;34.53;25.73;;;9.90;99.90;;;;;;6328335;28;20970;-65
2021/11/17 08:30:03;;;;;;;31.67;25.03;;;9.90;99.90;;;;;;6328125;28;20472;-67
2021/11/17 08:33:08;;;;;;;33.10;25.10;;;9.90;99.90;;;;;;6326636;28;20467;-67
2021/11/17 08:36:12;;;;;;;37.50;26.67;;;10.00;99.90;;;;;;6328578;28;20468;-67
2021/11/17 08:39:17;;;;;;;35.63;28.03;;;10.00;99.90;;;;;;6328496;28;20480;-67
2021/11/17 08:42:20;;;;;;;32.23;25.13;;;10.00;99.90;;;;;;6328029;28;20490;-68
2021/11/17 08:45:26;;;;;;;40.50;26.80;;;10.00;99.90;;;;;;6328213;28;20468;-67
2021/11/17 08:48:31;;;;;;;35.33;25.50;;;10.00;99.90;;;;;;6328838;28;20464;-65
2021/11/17 08:51:34;;;;;;;37.70;27.10;;;10.00;99.90;;;;;;6328377;28;20804;-67
2021/11/17 08:54:38;;;;;;;34.43;25.80;;;10.00;99.90;;;;;;6326478;28;20472;-66
2021/11/17 08:57:42;;;;;;;34.83;25.93;;;10.10;99.90;;;;;;6327919;28;20468;-67
2021/11/17 09:00:47;;;;;;;37.73;24.10;;;10.10;99.90;;;;;;6318649;28;20472;-66
2021/11/17 09:03:51;;;;;;;30.60;24.07;;;10.20;99.90;;;;;;6327954;28;20512;-68
2021/11/17 09:06:55;;;;;;;35.70;24.97;;;10.20;99.90;;;;;;6326053;28;20480;-68
2021/11/17 09:09:58;;;;;;;32.27;25.47;;;10.20;99.90;;;;;;6318629;28;20484;-67
2021/11/17 09:13:01;;;;;;;33.63;24.43;;;10.20;99.90;;;;;;6305081;28;20465;-67
2021/11/17 09:16:07;;;;;;;32.93;25.13;;;10.10;99.80;;;;;;6302260;28;20968;-67
2021/11/17 09:19:11;;;;;;;36.37;26.53;;;10.10;99.60;;;;;;6302389;28;20469;-67
2021/11/17 09:22:14;;;;;;;36.53;27.27;;;10.20;99.80;;;;;;6302522;28;20473;-68
2021/11/17 09:25:19;;;;;;;33.10;25.67;;;10.20;99.80;;;;;;6301698;28;20510;-67
2021/11/17 09:28:23;;;;;;;34.37;25.93;;;10.10;99.70;;;;;;6314198;28;20471;-67
2021/11/17 09:31:30;;;;;;;34.03;24.97;;;10.20;99.60;;;;;;6326820;28;20812;-68
2021/11/17 09:34:35;;;;;;;31.27;25.10;;;10.20;99.70;;;;;;6327491;28;20474;-69
2021/11/17 09:37:40;;;;;;;34.97;26.70;;;10.30;99.40;;;;;;6326944;28;20542;-67
2021/11/17 09:40:47;;;;;;;32.40;24.47;;;10.40;99.60;;;;;;6327076;28;20464;-68
2021/11/17 09:43:53;;;;;;;34.73;25.90;;;10.50;99.10;;;;;;6326786;28;20480;-67
2021/11/17 09:47:00;;;;;;;35.90;26.90;;;10.50;99.00;;;;;;6326977;28;20475;-65
2021/11/17 09:50:08;;;;;;;36.53;26.20;;;10.50;99.00;;;;;;6326581;28;20893;-67
2021/11/17 09:53:23;;;;;;;32.67;26.13;;;10.50;99.00;;;;;;6326920;28;20464;-67
2021/11/17 09:56:30;;;;;;;37.13;27.20;;;10.50;99.10;;;;;;6326383;28;20464;-68
2021/11/17 09:59:37;;;;;;;34.30;26.10;;;10.50;99.10;;;;;;6327110;28;20971;-66
2021/11/17 10:02:47;;;;;;;36.60;24.93;;;10.50;98.90;;;;;;6322027;28;20468;-67
2021/11/17 10:13:05;;;;;;;31.60;24.37;;;10.50;98.80;;;;;;6301654;28;20503;-67
2021/11/17 10:16:09;;;;;;;32.23;25.33;;;10.60;98.90;;;;;;6326213;28;20473;-67
2021/11/17 10:19:21;;;;;;;31.47;25.27;;;10.60;98.70;;;;;;6326077;28;20471;-67
2021/11/17 10:22:25;;;;;;;36.73;24.90;;;10.60;98.70;;;;;;6326050;28;20469;-67
2021/11/17 10:25:41;;;;;;;32.83;24.37;;;10.50;98.70;;;;;;6325256;27;20484;-66
2021/11/17 10:28:51;;;;;;;30.83;24.67;;;10.50;98.80;;;;;;6325933;27;20468;-67
2021/11/17 10:31:57;;;;;;;32.33;23.30;;;10.50;98.60;;;;;;6326202;28;20451;-66
2021/11/17 10:35:06;;;;;;;34.90;25.40;;;10.40;98.60;;;;;;6325919;28;20747;-66
2021/11/17 10:38:17;;;;;;;37.07;25.10;;;10.40;98.80;;;;;;6325539;28;20472;-66
2021/11/17 10:41:24;;;;;;;38.30;26.63;;;10.30;99.00;;;;;;6325780;28;20472;-67
2021/11/17 10:44:54;;;;;;;35.20;24.10;;;10.30;99.00;;;;;;6325408;28;20975;-66
2021/11/17 10:48:21;;;;;;;34.83;25.83;;;10.30;99.10;;;;;;6326278;28;20546;-65
2021/11/17 10:51:32;;;;;;;33.13;25.70;;;10.40;99.00;;;;;;6326676;28;20464;-66
2021/11/17 10:54:44;;;;;;;28.03;23.43;;;10.40;98.90;;;;;;6324869;28;20464;-66
2021/11/17 10:57:48;;;;;;;36.43;24.17;;;10.40;98.80;;;;;;6325408;28;20468;-67
2021/11/17 11:00:58;;;;;;;32.27;25.37;;;10.40;98.80;;;;;;6324749;28;20840;-66
2021/11/17 11:04:05;;;;;;;33.37;24.90;;;10.30;99.00;;;;;;6299996;28;20836;-66
2021/11/17 11:07:14;;;;;;;36.43;25.33;;;10.40;99.00;;;;;;6299643;28;20997;-67
2021/11/17 11:10:22;;;;;;;33.37;26.03;;;10.40;99.00;;;;;;6300079;28;20469;-67
2021/11/17 11:13:31;;;;;;;34.00;24.80;;;10.40;99.00;;;;;;6299792;28;20530;-66
2021/11/17 11:16:40;;;;;;;38.27;25.07;;;10.40;99.20;;;;;;6299600;28;20477;-66
2021/11/17 11:19:43;;;;;;;35.57;27.50;;;10.40;99.20;;;;;;6299359;28;20470;-66
2021/11/17 11:23:20;;;;;;;29.70;23.00;;;10.40;99.30;;;;;;6299208;28;20469;-66
2021/11/17 11:26:25;;;;;;;35.20;25.37;;;10.40;99.30;;;;;;6299184;28;20484;-66
2021/11/17 11:29:29;;;;;;;27.87;21.93;;;10.40;99.30;;;;;;6300320;28;20477;-66
2021/11/17 11:32:52;;;;;;;30.90;25.20;;;10.40;99.10;;;;;;6299720;28;21092;-66
2021/11/17 11:36:26;;;;;;;30.00;22.27;;;10.30;99.20;;;;;;6299163;28;20480;-66
2021/11/17 11:39:45;;;;;;;40.73;26.20;;;10.30;99.20;;;;;;6299293;28;20465;-66
2021/11/17 11:43:24;;;;;;;32.37;25.03;;;10.30;99.30;;;;;;6300948;28;22746;-68
2021/11/17 11:46:37;;;;;;;39.53;28.60;;;10.10;99.40;;;;;;6323506;27;20488;-68
2021/11/17 11:49:44;;;;;;;37.80;26.37;;;10.10;99.40;;;;;;6322274;27;20553;-69
2021/11/17 11:52:59;;;;;;;35.30;26.37;;;10.00;99.40;;;;;;6324331;28;20468;-69
2021/11/17 11:56:20;;;;;;;35.93;27.23;;;10.10;99.60;;;;;;6329654;27;20476;-69
2021/11/17 11:59:27;;;;;;;35.73;25.33;;;10.00;99.50;;;;;;6329413;28;20467;-68
2021/11/17 12:02:35;;;;;;;34.90;25.77;;;10.00;99.80;;;;;;6329479;28;20995;-68
2021/11/17 12:05:45;;;;;;;34.80;27.30;;;10.00;99.70;;;;;;6329270;28;20468;-69
2021/11/17 12:08:52;;;;;;;36.53;26.13;;;9.90;99.90;;;;;;6329139;27;20468;-69
2021/11/17 12:11:59;;;;;;;34.83;25.63;;;10.00;99.90;;;;;;6324398;27;20773;-69
2021/11/17 12:15:20;;;;;;;33.10;24.90;;;10.00;99.80;;;;;;6328634;27;20468;-68
2021/11/17 12:18:24;;;;;;;33.93;26.17;;;10.10;99.80;;;;;;6329167;27;20475;-69
2021/11/17 12:21:31;;;;;;;38.40;27.10;;;10.10;99.70;;;;;;6329559;27;20481;-68
2021/11/17 12:24:37;;;;;;;38.80;24.80;;;10.10;99.50;;;;;;6328317;27;20490;-68
2021/11/17 12:27:43;;;;;;;33.10;24.90;;;10.20;99.40;;;;;;6333583;28;20479;-67
2021/11/17 12:31:03;;;;;;;39.87;25.97;;;10.20;99.40;;;;;;6306657;28;20480;-66
2021/11/17 12:34:15;;;;;;;38.13;25.23;;;10.20;99.50;;;;;;6302535;28;20477;-63
2021/11/17 12:37:22;;;;;;;28.73;24.13;;;10.30;99.50;;;;;;6301742;28;20481;-64
2021/11/17 12:40:38;;;;;;;35.57;24.40;;;10.20;99.10;;;;;;6302253;28;20476;-64
2021/11/17 12:43:45;;;;;;;33.23;24.80;;;10.20;98.90;;;;;;6301792;28;20470;-66
2021/11/17 12:46:51;;;;;;;36.37;24.47;;;10.20;99.40;;;;;;6302253;28;20473;-64
2021/11/17 12:49:59;;;;;;;31.37;23.30;;;10.20;98.90;;;;;;6302554;28;20451;-65
2021/11/17 12:53:07;;;;;;;32.43;22.63;;;10.20;98.90;;;;;;6326945;28;20440;-63
2021/11/17 12:56:19;;;;;;;35.40;24.83;;;10.20;98.90;;;;;;6326164;28;20452;-66
2021/11/17 12:59:28;;;;;;;30.73;22.43;;;10.20;98.90;;;;;;6327295;28;20468;-66
2021/11/17 13:02:42;;;;;;;31.27;23.73;;;10.20;98.90;;;;;;6327337;28;20468;-66
2021/11/17 13:06:01;;;;;;;35.90;23.83;;;10.20;98.90;;;;;;6327154;28;20464;-67
2021/11/17 13:09:11;;;;;;;32.53;23.30;;;10.20;98.70;;;;;;6327639;28;20465;-68
2021/11/17 13:12:20;;;;;;;34.43;21.93;;;10.20;98.90;;;;;;6327863;28;20464;-68
2021/11/17 13:15:25;;;;;;;34.80;23.23;;;10.20;98.90;;;;;;6327860;28;20476;-66
2021/11/17 13:18:32;;;;;;;31.63;23.60;;;10.10;99.00;;;;;;6318147;28;20472;-65
2021/11/17 13:21:38;;;;;;;33.07;22.90;;;10.20;99.20;;;;;;6327930;28;20486;-65
2021/11/17 13:24:45;;;;;;;36.93;23.07;;;10.10;99.20;;;;;;6328439;28;20468;-65
2021/11/17 13:27:52;;;;;;;34.17;24.30;;;10.10;99.20;;;;;;6327329;28;20491;-65
2021/11/17 13:30:57;;;;;;;35.30;24.80;;;10.00;99.20;;;;;;6327722;28;20461;-66
2021/11/17 13:34:03;;;;;;;35.53;24.23;;;10.00;99.30;;;;;;6327343;28;20472;-65
2021/11/17 13:37:20;;;;;;;30.33;23.90;;;9.90;99.90;;;;;;6326702;28;20975;-65
2021/11/17 13:40:25;;;;;;;34.00;23.00;;;9.90;99.90;;;;;;6326767;28;20460;-65
2021/11/17 13:43:30;;;;;;;27.60;21.33;;;9.90;99.90;;;;;;6327313;28;20468;-65
2021/11/17 13:46:34;;;;;;;29.97;22.37;;;10.00;99.60;;;;;;6326350;28;20484;-67
2021/11/17 13:49:39;;;;;;;33.13;22.20;;;10.00;99.50;;;;;;6326950;28;20495;-67
2021/11/17 13:52:49;;;;;;;35.43;22.20;;;10.10;99.50;;;;;;6326779;27;20805;-67
2021/11/17 13:55:56;;;;;;;33.47;22.23;;;10.10;99.40;;;;;;6327094;27;20491;-65
2021/11/17 13:58:59;;;;;;;29.23;21.90;;;10.10;99.30;;;;;;6326372;28;20768;-65
2021/11/17 14:02:04;;;;;;;36.30;24.37;;;10.20;99.10;;;;;;6327065;28;20440;-64
2021/11/17 14:05:09;;;;;;;27.67;21.00;;;10.10;98.90;;;;;;6326378;28;20463;-67
2021/11/17 14:08:12;;;;;;;28.17;20.23;;;10.10;99.00;;;;;;6325248;28;20459;-68
2021/11/17 14:11:16;;;;;;;29.73;21.67;;;10.00;99.00;;;;;;6326313;27;20479;-68
2021/11/17 14:14:20;;;;;;;24.30;19.87;;;9.90;99.70;;;;;;6326043;28;20467;-68
2021/11/17 14:17:24;;;;;;;31.07;21.37;;;9.90;99.70;;;;;;6325479;28;20472;-68
2021/11/17 14:20:29;;;;;;;34.83;20.87;;;9.90;99.90;;;;;;6321989;28;20926;-67
2021/11/17 14:23:32;;;;;;;28.43;21.13;;;10.00;99.50;;;;;;6326159;28;20469;-67
2021/11/17 14:26:36;;;;;;;30.90;21.37;;;9.90;99.90;;;;;;6326039;27;20464;-67
2021/11/17 14:29:45;;;;;;;32.60;20.23;;;10.00;99.60;;;;;;6325615;27;20468;-67
2021/11/17 14:32:53;;;;;;;27.23;20.53;;;10.00;99.50;;;;;;6325966;27;20472;-68
2021/11/17 14:35:56;;;;;;;30.03;21.17;;;10.10;99.30;;;;;;6325499;27;20472;-68
2021/11/17 14:39:03;;;;;;;33.00;21.83;;;10.20;99.20;;;;;;6325305;27;20479;-68
2021/11/17 14:42:11;;;;;;;34.43;22.80;;;10.20;99.10;;;;;;6325524;28;20460;-68
2021/11/17 14:45:17;;;;;;;31.57;23.20;;;10.20;99.20;;;;;;6325546;28;20468;-68
2021/11/17 14:48:22;;;;;;;29.80;22.83;;;10.20;99.30;;;;;;6325175;28;20464;-68
2021/11/17 14:51:25;;;;;;;29.93;22.00;;;10.10;99.40;;;;;;6324787;28;20955;-68
2021/11/17 14:54:29;;;;;;;37.20;25.47;;;10.10;99.40;;;;;;6324985;28;20960;-68
2021/11/17 14:57:32;;;;;;;32.80;23.20;;;10.10;99.60;;;;;;6325202;28;20476;-67
2021/11/17 15:00:38;;;;;;;28.37;21.67;;;10.00;99.40;;;;;;6326220;28;20468;-69
2021/11/17 15:03:44;;;;;;;27.23;19.33;;;9.90;99.90;;;;;;6324536;28;20464;-68
2021/11/17 15:06:47;;;;;;;31.17;21.40;;;10.00;99.70;;;;;;6324847;28;20480;-68
2021/11/17 15:09:51;;;;;;;29.13;21.60;;;10.00;99.70;;;;;;6324761;28;20475;-68
2021/11/17 15:12:55;;;;;;;32.03;22.67;;;10.00;99.70;;;;;;6324463;28;20487;-68
2021/11/17 15:15:58;;;;;;;32.17;21.47;;;10.00;99.70;;;;;;6324272;27;20475;-69
2021/11/17 15:19:03;;;;;;;30.97;21.93;;;10.00;99.70;;;;;;6324587;27;20491;-68
2021/11/17 15:22:07;;;;;;;31.33;22.10;;;10.00;99.80;;;;;;6324865;27;20475;-67
2021/11/17 15:25:11;;;;;;;30.53;22.70;;;10.00;99.80;;;;;;6324830;27;20827;-68
2021/11/17 15:28:18;;;;;;;34.07;22.90;;;9.90;99.90;;;;;;6320519;27;20483;-68
2021/11/17 15:31:25;;;;;;;28.90;22.13;;;9.90;99.90;;;;;;6324621;27;20495;-68
2021/11/17 15:34:29;;;;;;;34.73;23.57;;;9.90;99.90;;;;;;6324259;27;20986;-69
2021/11/17 15:37:32;;;;;;;32.93;21.30;;;9.90;99.90;;;;;;6324121;27;20537;-68
2021/11/17 15:40:42;;;;;;;26.87;20.33;;;9.90;99.90;;;;;;6324711;27;20475;-68
2021/11/17 15:43:50;;;;;;;37.77;23.53;;;10.00;99.90;;;;;;6324598;27;20846;-68
2021/11/17 15:46:57;;;;;;;30.20;22.70;;;10.00;99.80;;;;;;6324155;27;20495;-69
2021/11/17 15:50:05;;;;;;;34.30;22.80;;;9.90;99.90;;;;;;6324108;28;20783;-69
2021/11/17 15:53:08;;;;;;;32.87;24.70;;;9.90;99.90;;;;;;6323980;28;20419;-68
2021/11/17 15:56:12;;;;;;;34.57;24.00;;;9.90;99.90;;;;;;6324300;28;20463;-68
2021/11/17 15:59:16;;;;;;;32.80;22.70;;;9.80;99.90;;;;;;6324470;28;20456;-68
2021/11/17 16:02:19;;;;;;;34.53;21.53;;;9.80;99.90;;;;;;6337867;28;20458;-67
2021/11/17 16:05:24;;;;;;;35.70;23.73;;;9.90;99.90;;;;;;6351196;28;20463;-67
2021/11/17 16:08:27;;;;;;;35.17;23.60;;;9.80;99.90;;;;;;6349175;28;20815;-68
2021/11/17 16:11:30;;;;;;;28.17;21.70;;;9.80;99.90;;;;;;6349935;28;20467;-67
2021/11/17 16:14:34;;;;;;;28.93;20.73;;;9.80;99.90;;;;;;6341427;27;20468;-67
2021/11/17 16:17:38;;;;;;;30.43;21.20;;;9.80;99.90;;;;;;6324463;27;20465;-67
2021/11/17 16:20:50;;;;;;;31.17;20.67;;;9.80;99.90;;;;;;6324239;27;20482;-67
2021/11/17 16:27:15;;;;;;;30.03;22.27;;;9.80;99.90;;;;;;6323687;27;20920;-67
2021/11/17 16:30:21;;;;;;;32.83;21.73;;;9.80;99.90;;;;;;6315089;27;20475;-68
2021/11/17 16:33:25;;;;;;;31.27;21.10;;;9.80;99.90;;;;;;6323850;27;20483;-70
2021/11/17 16:36:34;;;;;;;30.87;22.03;;;9.70;99.90;;;;;;6323619;27;20472;-66
2021/11/17 16:39:37;;;;;;;29.00;21.63;;;9.80;99.90;;;;;;6323937;27;20487;-68
2021/11/17 16:42:41;;;;;;;36.17;24.03;;;9.80;99.90;;;;;;6328976;27;20982;-67
2021/11/17 16:45:45;;;;;;;33.23;22.30;;;9.70;99.90;;;;;;6328154;27;20543;-67
2021/11/17 16:48:48;;;;;;;32.93;23.33;;;9.60;99.90;;;;;;6328579;27;20479;-68
2021/11/17 16:52:19;;;;;;;32.70;24.43;;;9.60;99.90;;;;;;6327899;28;20483;-68
2021/11/17 16:55:25;;;;;;;35.93;22.17;;;9.60;99.90;;;;;;6328097;28;20472;-68
2021/11/17 16:58:28;;;;;;;35.03;23.03;;;9.50;99.90;;;;;;6327928;28;20464;-68
2021/11/17 17:01:31;;;;;;;30.97;21.30;;;9.50;99.90;;;;;;6327639;28;20490;-67
2021/11/17 17:04:38;;;;;;;31.73;22.13;;;9.50;99.90;;;;;;6327678;28;20472;-67
2021/11/17 17:07:43;;;;;;;30.80;22.70;;;9.50;99.90;;;;;;6327174;28;20480;-68
2021/11/17 17:10:46;;;;;;;33.63;23.13;;;9.60;99.90;;;;;;6327723;28;20814;-65
2021/11/17 17:13:51;;;;;;;30.10;22.90;;;9.60;99.90;;;;;;6327850;28;20555;-66
2021/11/17 17:17:14;;;;;;;32.50;22.30;;;9.50;99.90;;;;;;6327592;27;20459;-66
2021/11/17 17:20:20;;;;;;;33.37;21.30;;;9.50;99.90;;;;;;6327592;27;20471;-66
2021/11/17 17:23:26;;;;;;;30.10;21.83;;;9.50;99.90;;;;;;6327561;27;20534;-66
2021/11/17 17:26:29;;;;;;;33.70;22.90;;;9.40;99.90;;;;;;6327636;27;20471;-66
2021/11/17 17:29:33;;;;;;;34.50;21.03;;;9.40;99.90;;;;;;6327377;27;20479;-69
2021/11/17 17:32:36;;;;;;;34.27;23.43;;;9.40;99.90;;;;;;6317804;28;20509;-67
2021/11/17 17:35:40;;;;;;;27.73;21.33;;;9.50;99.90;;;;;;6327159;28;20472;-67
2021/11/17 17:38:45;;;;;;;29.23;19.67;;;9.50;99.90;;;;;;6326807;28;20482;-68
2021/11/17 17:41:50;;;;;;;31.53;22.70;;;9.40;99.90;;;;;;6326709;28;20469;-68
2021/11/17 17:44:55;;;;;;;30.80;21.10;;;9.50;99.90;;;;;;6302674;28;20750;-67
2021/11/17 17:47:58;;;;;;;30.67;19.33;;;9.50;99.90;;;;;;6300419;28;20477;-67
2021/11/17 17:51:03;;;;;;;29.97;22.03;;;9.60;99.90;;;;;;6310389;28;20468;-67
2021/11/17 17:54:08;;;;;;;30.60;22.10;;;9.50;99.90;;;;;;6325153;28;20461;-67
2021/11/17 17:57:11;;;;;;;33.73;22.50;;;9.50;99.90;;;;;;6325809;28;20479;-67
2021/11/17 18:00:17;;;;;;;27.40;20.97;;;9.50;99.90;;;;;;6326216;28;20460;-68
2021/11/17 18:03:23;;;;;;;29.90;19.70;;;9.50;99.90;;;;;;6326096;28;20475;-67
2021/11/17 18:06:26;;;;;;;26.17;18.57;;;9.60;99.90;;;;;;6327134;28;20817;-67
2021/11/17 18:09:31;;;;;;;32.27;22.40;;;9.50;99.90;;;;;;6326392;28;20479;-67
2021/11/17 18:12:54;;;;;;;31.77;21.33;;;9.50;99.90;;;;;;6324829;28;20503;-68
2021/11/17 18:15:58;;;;;;;30.63;22.50;;;9.50;99.90;;;;;;6324306;28;20472;-68
2021/11/17 18:19:01;;;;;;;31.40;23.40;;;9.50;99.90;;;;;;6323962;28;20602;-68
2021/11/17 18:22:04;;;;;;;33.00;22.57;;;9.50;99.90;;;;;;6323899;28;20467;-68
2021/11/17 18:25:14;;;;;;;35.63;24.30;;;9.50;99.90;;;;;;6325543;28;20586;-67
2021/11/17 18:28:17;;;;;;;32.83;25.03;;;9.50;99.90;;;;;;6326112;28;20468;-67
2021/11/17 18:31:22;;;;;;;32.77;23.33;;;9.50;99.90;;;;;;6325879;28;20464;-67
2021/11/17 18:34:25;;;;;;;33.43;25.50;;;9.50;99.90;;;;;;6325416;28;20559;-68
2021/11/17 18:37:28;;;;;;;36.30;26.27;;;9.60;99.90;;;;;;6320777;28;20472;-68
2021/11/17 18:40:37;;;;;;;35.63;25.17;;;9.50;99.90;;;;;;6325926;28;20609;-67
2021/11/17 18:43:40;;;;;;;33.00;24.83;;;9.50;99.90;;;;;;6325691;28;20849;-67
2021/11/17 18:46:44;;;;;;;34.03;24.87;;;9.50;99.90;;;;;;6326032;28;20472;-67
2021/11/17 18:49:48;;;;;;;36.40;26.03;;;9.50;99.90;;;;;;6325233;28;20491;-68